MDW weather

Chicago Midway International Airport
Chicago, Illinois, United States

Public forecast

Using degrees Fahrenheit for public forecast. Weather courtesy of forecast.io.

METAR (pilot weather report)

Retrieved 2019/02/18 16:53 UTC (12 minutes ago):

KMDW 181653Z 02010KT 10SM FEW011 BKN019 BKN025 M03/M07 A3032 RMK AO2 SLP282 P0000 T10281067 $

TAF (pilot weather forecast)

Retrieved 2019/02/18 12:28 UTC (5 hours ago):

TAF KMDW 181125Z 1812/1918 01009KT 3SM -SN BR BKN015 OVC025 TEMPO 1812/1813 1SM -SHSN BKN010 FM181300 36007KT 3SM -SN BKN015 OVC025 TEMPO 1813/1816 3/4SM -SHSN BKN010 FM181600 35011KT 5SM -SHSN BKN015 OVC025 FM181800 34010KT P6SM SCT015 OVC025 FM190300 29004KT P6SM SCT025 BKN035 FM191500 21005KT P6SM BKN250